sensor_id;sensor_type;location;lat;lon;timestamp;pressure;altitude;pressure_sealevel;temperature;humidity
72086;BME280;64750;52.134;5.424;2023-05-08T00:00:57;102257.91;;;14.63;82.53
72086;BME280;64750;52.134;5.424;2023-05-08T00:03:24;102256.19;;;14.62;82.91
72086;BME280;64750;52.134;5.424;2023-05-08T00:05:52;102260.72;;;14.60;82.34
72086;BME280;64750;52.134;5.424;2023-05-08T00:08:20;102266.66;;;14.48;82.44
72086;BME280;64750;52.134;5.424;2023-05-08T00:10:47;102268.38;;;14.49;82.43
72086;BME280;64750;52.134;5.424;2023-05-08T00:13:14;102262.50;;;14.43;82.22
72086;BME280;64750;52.134;5.424;2023-05-08T00:15:41;102263.56;;;14.39;82.88
72086;BME280;64750;52.134;5.424;2023-05-08T00:18:07;102254.56;;;14.43;82.84
72086;BME280;64750;52.134;5.424;2023-05-08T00:20:34;102254.47;;;14.45;82.63
72086;BME280;64750;52.134;5.424;2023-05-08T00:23:00;102247.38;;;14.46;82.76
72086;BME280;64750;52.134;5.424;2023-05-08T00:25:27;102246.34;;;14.48;83.01
72086;BME280;64750;52.134;5.424;2023-05-08T00:27:53;102242.88;;;14.48;82.85
72086;BME280;64750;52.134;5.424;2023-05-08T00:30:19;102240.22;;;14.48;82.80
72086;BME280;64750;52.134;5.424;2023-05-08T00:32:46;102233.22;;;14.47;82.51
72086;BME280;64750;52.134;5.424;2023-05-08T00:35:12;102238.59;;;14.45;82.49
72086;BME280;64750;52.134;5.424;2023-05-08T00:37:39;102238.69;;;14.43;82.43
72086;BME280;64750;52.134;5.424;2023-05-08T00:40:09;102244.28;;;14.37;82.70
72086;BME280;64750;52.134;5.424;2023-05-08T00:42:37;102254.78;;;14.39;82.82
72086;BME280;64750;52.134;5.424;2023-05-08T00:45:03;102243.19;;;14.41;82.73
72086;BME280;64750;52.134;5.424;2023-05-08T00:47:31;102243.97;;;14.43;82.43
72086;BME280;64750;52.134;5.424;2023-05-08T00:50:00;102237.91;;;14.41;82.15
72086;BME280;64750;52.134;5.424;2023-05-08T00:52:29;102235.44;;;14.38;82.28
72086;BME280;64750;52.134;5.424;2023-05-08T00:54:56;102232.69;;;14.40;82.46
72086;BME280;64750;52.134;5.424;2023-05-08T00:57:23;102234.41;;;14.41;82.39
72086;BME280;64750;52.134;5.424;2023-05-08T00:59:51;102239.16;;;14.34;81.82
72086;BME280;64750;52.134;5.424;2023-05-08T01:02:17;102241.28;;;14.27;81.99
72086;BME280;64750;52.134;5.424;2023-05-08T01:04:44;102235.47;;;14.21;81.85
72086;BME280;64750;52.134;5.424;2023-05-08T01:07:11;102237.41;;;14.17;82.29
72086;BME280;64750;52.134;5.424;2023-05-08T01:09:37;102245.34;;;14.17;82.22
72086;BME280;64750;52.134;5.424;2023-05-08T01:12:19;102240.31;;;14.13;82.37
72086;BME280;64750;52.134;5.424;2023-05-08T01:14:58;102243.91;;;14.11;82.78
72086;BME280;64750;52.134;5.424;2023-05-08T01:17:34;102238.44;;;14.15;82.77
72086;BME280;64750;52.134;5.424;2023-05-08T01:20:31;102242.28;;;14.09;82.83
72086;BME280;64750;52.134;5.424;2023-05-08T01:23:38;102246.84;;;14.05;82.84
72086;BME280;64750;52.134;5.424;2023-05-08T01:34:30;102248.28;;;13.95;82.45
72086;BME280;64750;52.134;5.424;2023-05-08T01:37:00;102252.78;;;13.93;82.39
72086;BME280;64750;52.134;5.424;2023-05-08T01:39:56;102255.06;;;13.83;82.23
72086;BME280;64750;52.134;5.424;2023-05-08T01:42:52;102250.78;;;13.81;82.28
72086;BME280;64750;52.134;5.424;2023-05-08T01:45:31;102249.81;;;13.82;82.84
72086;BME280;64750;52.134;5.424;2023-05-08T01:48:04;102240.13;;;13.82;82.55
72086;BME280;64750;52.134;5.424;2023-05-08T01:50:37;102252.47;;;13.82;82.43
72086;BME280;64750;52.134;5.424;2023-05-08T01:53:28;102253.25;;;13.84;82.64
72086;BME280;64750;52.134;5.424;2023-05-08T01:56:04;102256.06;;;13.81;82.30
72086;BME280;64750;52.134;5.424;2023-05-08T01:58:34;102255.38;;;13.77;82.15
72086;BME280;64750;52.134;5.424;2023-05-08T02:01:02;102259.09;;;13.73;81.87
72086;BME280;64750;52.134;5.424;2023-05-08T02:03:30;102254.03;;;13.68;81.78
72086;BME280;64750;52.134;5.424;2023-05-08T02:06:00;102264.91;;;13.62;81.44
72086;BME280;64750;52.134;5.424;2023-05-08T02:08:28;102269.28;;;13.63;82.09
72086;BME280;64750;52.134;5.424;2023-05-08T02:10:56;102261.03;;;13.69;82.26
72086;BME280;64750;52.134;5.424;2023-05-08T02:13:25;102270.69;;;13.70;82.39
72086;BME280;64750;52.134;5.424;2023-05-08T02:15:54;102260.34;;;13.66;82.30
72086;BME280;64750;52.134;5.424;2023-05-08T02:18:23;102259.25;;;13.70;82.40
72086;BME280;64750;52.134;5.424;2023-05-08T02:20:50;102265.06;;;13.76;82.20
72086;BME280;64750;52.134;5.424;2023-05-08T02:23:19;102257.09;;;13.78;82.10
72086;BME280;64750;52.134;5.424;2023-05-08T02:25:46;102265.84;;;13.78;82.04
72086;BME280;64750;52.134;5.424;2023-05-08T02:28:14;102264.53;;;13.70;81.92
72086;BME280;64750;52.134;5.424;2023-05-08T02:30:42;102276.31;;;13.62;82.13
72086;BME280;64750;52.134;5.424;2023-05-08T02:33:11;102272.13;;;13.58;82.27
72086;BME280;64750;52.134;5.424;2023-05-08T02:35:40;102274.56;;;13.63;83.02
72086;BME280;64750;52.134;5.424;2023-05-08T02:38:09;102273.75;;;13.61;82.99
72086;BME280;64750;52.134;5.424;2023-05-08T02:40:40;102276.19;;;13.66;82.96
72086;BME280;64750;52.134;5.424;2023-05-08T02:43:09;102273.63;;;13.64;83.07
72086;BME280;64750;52.134;5.424;2023-05-08T02:45:40;102278.91;;;13.64;83.27
72086;BME280;64750;52.134;5.424;2023-05-08T02:48:11;102280.84;;;13.60;83.39
72086;BME280;64750;52.134;5.424;2023-05-08T02:50:46;102273.06;;;13.57;83.28
72086;BME280;64750;52.134;5.424;2023-05-08T02:53:22;102272.84;;;13.62;83.26
72086;BME280;64750;52.134;5.424;2023-05-08T02:55:55;102271.38;;;13.56;83.01
72086;BME280;64750;52.134;5.424;2023-05-08T02:58:35;102269.75;;;13.54;83.38
72086;BME280;64750;52.134;5.424;2023-05-08T03:01:10;102271.38;;;13.56;83.53
72086;BME280;64750;52.134;5.424;2023-05-08T03:03:40;102269.56;;;13.57;83.72
72086;BME280;64750;52.134;5.424;2023-05-08T03:06:12;102266.94;;;13.57;83.46
72086;BME280;64750;52.134;5.424;2023-05-08T03:08:39;102259.84;;;13.57;83.60
72086;BME280;64750;52.134;5.424;2023-05-08T03:11:09;102259.84;;;13.57;83.59
72086;BME280;64750;52.134;5.424;2023-05-08T03:13:39;102262.66;;;13.54;83.58
72086;BME280;64750;52.134;5.424;2023-05-08T03:16:10;102255.75;;;13.52;83.37
72086;BME280;64750;52.134;5.424;2023-05-08T03:18:51;102257.59;;;13.50;83.39
72086;BME280;64750;52.134;5.424;2023-05-08T03:21:19;102255.75;;;13.52;83.45
72086;BME280;64750;52.134;5.424;2023-05-08T03:23:48;102254.81;;;13.53;83.52
72086;BME280;64750;52.134;5.424;2023-05-08T03:26:18;102251.47;;;13.49;83.26
72086;BME280;64750;52.134;5.424;2023-05-08T03:28:46;102250.69;;;13.47;83.56
72086;BME280;64750;52.134;5.424;2023-05-08T03:31:16;102255.34;;;13.42;83.37
72086;BME280;64750;52.134;5.424;2023-05-08T03:33:44;102253.03;;;13.34;83.32
72086;BME280;64750;52.134;5.424;2023-05-08T03:36:13;102250.56;;;13.31;83.23
72086;BME280;64750;52.134;5.424;2023-05-08T03:38:40;102257.66;;;13.31;83.48
72086;BME280;64750;52.134;5.424;2023-05-08T03:41:07;102258.50;;;13.31;83.34
72086;BME280;64750;52.134;5.424;2023-05-08T03:43:35;102246.13;;;13.32;83.41
72086;BME280;64750;52.134;5.424;2023-05-08T03:46:04;102257.34;;;13.37;83.25
72086;BME280;64750;52.134;5.424;2023-05-08T03:48:32;102245.78;;;13.39;82.94
72086;BME280;64750;52.134;5.424;2023-05-08T03:51:03;102246.72;;;13.38;82.88
72086;BME280;64750;52.134;5.424;2023-05-08T03:53:30;102246.00;;;13.35;82.67
72086;BME280;64750;52.134;5.424;2023-05-08T03:55:58;102246.91;;;13.34;82.83
72086;BME280;64750;52.134;5.424;2023-05-08T04:01:17;102252.50;;;13.27;82.54
72086;BME280;64750;52.134;5.424;2023-05-08T04:03:51;102246.66;;;13.21;82.78
72086;BME280;64750;52.134;5.424;2023-05-08T04:06:28;102244.09;;;13.19;82.60
72086;BME280;64750;52.134;5.424;2023-05-08T04:09:27;102245.13;;;13.17;82.30
72086;BME280;64750;52.134;5.424;2023-05-08T04:14:30;102261.38;;;13.07;82.46
72086;BME280;64750;52.134;5.424;2023-05-08T04:17:02;102254.34;;;13.08;82.53
72086;BME280;64750;52.134;5.424;2023-05-08T04:19:33;102261.53;;;13.04;82.44
72086;BME280;64750;52.134;5.424;2023-05-08T04:22:05;102266.09;;;13.01;82.48
72086;BME280;64750;52.134;5.424;2023-05-08T04:24:41;102260.97;;;12.98;82.51
72086;BME280;64750;52.134;5.424;2023-05-08T04:27:09;102260.81;;;13.01;82.28
72086;BME280;64750;52.134;5.424;2023-05-08T04:29:36;102265.38;;;12.97;82.51
72086;BME280;64750;52.134;5.424;2023-05-08T04:32:06;102270.03;;;12.92;82.35
72086;BME280;64750;52.134;5.424;2023-05-08T04:34:34;102265.53;;;12.94;82.69
72086;BME280;64750;52.134;5.424;2023-05-08T04:37:01;102267.09;;;12.98;82.46
72086;BME280;64750;52.134;5.424;2023-05-08T04:39:27;102267.25;;;12.95;82.64
72086;BME280;64750;52.134;5.424;2023-05-08T04:41:53;102272.66;;;12.92;82.28
72086;BME280;64750;52.134;5.424;2023-05-08T04:44:20;102269.25;;;12.90;82.29
72086;BME280;64750;52.134;5.424;2023-05-08T04:46:47;102274.91;;;12.82;82.29
72086;BME280;64750;52.134;5.424;2023-05-08T04:49:15;102275.66;;;12.84;82.87
72086;BME280;64750;52.134;5.424;2023-05-08T04:51:41;102278.91;;;12.91;82.89
72086;BME280;64750;52.134;5.424;2023-05-08T04:54:08;102273.47;;;12.94;82.81
72086;BME280;64750;52.134;5.424;2023-05-08T04:56:34;102275.00;;;12.98;83.20
72086;BME280;64750;52.134;5.424;2023-05-08T04:59:01;102274.94;;;13.00;82.80
72086;BME280;64750;52.134;5.424;2023-05-08T05:01:27;102282.94;;;12.98;82.73
72086;BME280;64750;52.134;5.424;2023-05-08T05:03:54;102284.66;;;12.99;83.16
72086;BME280;64750;52.134;5.424;2023-05-08T05:06:21;102288.00;;;13.03;83.27
72086;BME280;64750;52.134;5.424;2023-05-08T05:08:47;102287.94;;;13.04;83.51
72086;BME280;64750;52.134;5.424;2023-05-08T05:11:13;102290.50;;;13.06;83.36
72086;BME280;64750;52.134;5.424;2023-05-08T05:13:40;102300.97;;;13.07;83.50
72086;BME280;64750;52.134;5.424;2023-05-08T05:16:06;102301.75;;;13.09;83.43
72086;BME280;64750;52.134;5.424;2023-05-08T05:18:33;102297.56;;;13.05;83.57
72086;BME280;64750;52.134;5.424;2023-05-08T05:20:59;102304.03;;;12.98;84.06
72086;BME280;64750;52.134;5.424;2023-05-08T05:23:26;102304.84;;;13.00;84.41
72086;BME280;64750;52.134;5.424;2023-05-08T05:25:52;102301.69;;;12.92;85.16
72086;BME280;64750;52.134;5.424;2023-05-08T05:28:18;102305.19;;;12.92;85.60
72086;BME280;64750;52.134;5.424;2023-05-08T05:30:48;102304.31;;;12.92;85.95
72086;BME280;64750;52.134;5.424;2023-05-08T05:33:14;102303.19;;;12.98;85.82
72086;BME280;64750;52.134;5.424;2023-05-08T05:35:41;102308.03;;;13.07;85.86
72086;BME280;64750;52.134;5.424;2023-05-08T05:38:07;102312.03;;;13.16;85.90
72086;BME280;64750;52.134;5.424;2023-05-08T05:40:33;102308.19;;;13.23;85.72
72086;BME280;64750;52.134;5.424;2023-05-08T05:43:00;102318.38;;;13.31;85.61
72086;BME280;64750;52.134;5.424;2023-05-08T05:45:26;102311.94;;;13.36;85.54
72086;BME280;64750;52.134;5.424;2023-05-08T05:47:53;102320.53;;;13.41;85.44
72086;BME280;64750;52.134;5.424;2023-05-08T05:50:19;102313.22;;;13.47;85.45
72086;BME280;64750;52.134;5.424;2023-05-08T05:52:47;102313.06;;;13.50;85.77
72086;BME280;64750;52.134;5.424;2023-05-08T05:55:14;102311.13;;;13.53;86.15
72086;BME280;64750;52.134;5.424;2023-05-08T05:57:41;102318.97;;;13.55;86.24
72086;BME280;64750;52.134;5.424;2023-05-08T06:00:07;102319.59;;;13.60;86.10
72086;BME280;64750;52.134;5.424;2023-05-08T06:02:37;102321.25;;;13.62;85.93
72086;BME280;64750;52.134;5.424;2023-05-08T06:05:04;102319.31;;;13.66;86.02
72086;BME280;64750;52.134;5.424;2023-05-08T06:07:31;102319.16;;;13.69;86.12
72086;BME280;64750;52.134;5.424;2023-05-08T06:09:57;102318.09;;;13.73;86.23
72086;BME280;64750;52.134;5.424;2023-05-08T06:12:24;102320.56;;;13.76;86.57
72086;BME280;64750;52.134;5.424;2023-05-08T06:14:51;102319.50;;;13.81;86.64
72086;BME280;64750;52.134;5.424;2023-05-08T06:17:17;102319.31;;;13.84;86.55
72086;BME280;64750;52.134;5.424;2023-05-08T06:19:44;102318.41;;;13.85;86.66
72086;BME280;64750;52.134;5.424;2023-05-08T06:22:16;102312.94;;;13.88;86.58
72086;BME280;64750;52.134;5.424;2023-05-08T06:24:43;102325.16;;;13.90;86.92
72086;BME280;64750;52.134;5.424;2023-05-08T06:27:10;102319.72;;;13.93;86.71
72086;BME280;64750;52.134;5.424;2023-05-08T06:29:37;102321.38;;;13.96;87.10
72086;BME280;64750;52.134;5.424;2023-05-08T06:32:03;102314.28;;;13.97;87.43
72086;BME280;64750;52.134;5.424;2023-05-08T06:34:30;102312.47;;;13.97;87.52
72086;BME280;64750;52.134;5.424;2023-05-08T06:36:56;102324.00;;;13.96;87.75
72086;BME280;64750;52.134;5.424;2023-05-08T06:39:23;102317.75;;;13.97;87.40
72086;BME280;64750;52.134;5.424;2023-05-08T06:41:49;102322.03;;;14.00;87.38
72086;BME280;64750;52.134;5.424;2023-05-08T06:44:16;102321.09;;;14.01;87.25
72086;BME280;64750;52.134;5.424;2023-05-08T06:46:42;102328.03;;;14.03;87.22
72086;BME280;64750;52.134;5.424;2023-05-08T06:49:09;102318.25;;;14.05;87.16
72086;BME280;64750;52.134;5.424;2023-05-08T06:51:35;102323.34;;;14.08;87.17
72086;BME280;64750;52.134;5.424;2023-05-08T06:54:03;102326.69;;;14.12;87.05
72086;BME280;64750;52.134;5.424;2023-05-08T06:56:33;102323.13;;;14.13;87.51
72086;BME280;64750;52.134;5.424;2023-05-08T06:59:00;102326.63;;;14.14;87.90
72086;BME280;64750;52.134;5.424;2023-05-08T07:01:34;102324.69;;;14.17;87.96
72086;BME280;64750;52.134;5.424;2023-05-08T07:04:01;102322.72;;;14.21;88.36
72086;BME280;64750;52.134;5.424;2023-05-08T07:06:27;102329.66;;;14.23;88.39
72086;BME280;64750;52.134;5.424;2023-05-08T07:08:53;102333.84;;;14.27;88.15
72086;BME280;64750;52.134;5.424;2023-05-08T07:11:20;102330.97;;;14.32;88.58
72086;BME280;64750;52.134;5.424;2023-05-08T07:13:47;102330.78;;;14.35;88.94
72086;BME280;64750;52.134;5.424;2023-05-08T07:16:14;102322.78;;;14.37;88.73
72086;BME280;64750;52.134;5.424;2023-05-08T07:18:41;102324.41;;;14.39;88.92
72086;BME280;64750;52.134;5.424;2023-05-08T07:21:08;102332.94;;;14.44;89.51
72086;BME280;64750;52.134;5.424;2023-05-08T07:23:34;102323.94;;;14.49;89.53
72086;BME280;64750;52.134;5.424;2023-05-08T07:26:01;102328.28;;;14.50;89.75
72086;BME280;64750;52.134;5.424;2023-05-08T07:28:27;102320.34;;;14.50;89.78
72086;BME280;64750;52.134;5.424;2023-05-08T07:30:54;102322.97;;;14.50;90.13
72086;BME280;64750;52.134;5.424;2023-05-08T07:33:20;102321.13;;;14.52;90.34
72086;BME280;64750;52.134;5.424;2023-05-08T07:35:47;102325.47;;;14.53;90.53
72086;BME280;64750;52.134;5.424;2023-05-08T07:38:14;102324.56;;;14.54;90.76
72086;BME280;64750;52.134;5.424;2023-05-08T07:40:40;102321.91;;;14.54;91.36
72086;BME280;64750;52.134;5.424;2023-05-08T07:43:07;102319.16;;;14.55;91.17
72086;BME280;64750;52.134;5.424;2023-05-08T07:45:34;102321.72;;;14.57;91.14
72086;BME280;64750;52.134;5.424;2023-05-08T07:48:00;102320.72;;;14.59;90.92
72086;BME280;64750;52.134;5.424;2023-05-08T07:50:27;102320.63;;;14.61;91.13
72086;BME280;64750;52.134;5.424;2023-05-08T07:52:53;102314.31;;;14.64;91.22
72086;BME280;64750;52.134;5.424;2023-05-08T07:55:20;102315.91;;;14.68;91.25
72086;BME280;64750;52.134;5.424;2023-05-08T07:57:46;102316.56;;;14.71;91.33
72086;BME280;64750;52.134;5.424;2023-05-08T08:00:14;102316.44;;;14.74;91.39
72086;BME280;64750;52.134;5.424;2023-05-08T08:02:42;102317.97;;;14.79;91.71
72086;BME280;64750;52.134;5.424;2023-05-08T08:05:09;102316.09;;;14.81;91.54
72086;BME280;64750;52.134;5.424;2023-05-08T08:07:36;102320.41;;;14.82;91.79
72086;BME280;64750;52.134;5.424;2023-05-08T08:10:02;102315.91;;;14.84;91.71
72086;BME280;64750;52.134;5.424;2023-05-08T08:12:32;102313.19;;;14.85;91.56
72086;BME280;64750;52.134;5.424;2023-05-08T08:14:59;102320.88;;;14.90;91.89
72086;BME280;64750;52.134;5.424;2023-05-08T08:17:25;102327.88;;;14.91;91.69
72086;BME280;64750;52.134;5.424;2023-05-08T08:19:54;102335.88;;;14.89;91.74
72086;BME280;64750;52.134;5.424;2023-05-08T08:22:20;102328.03;;;14.88;91.82
72086;BME280;64750;52.134;5.424;2023-05-08T08:24:47;102328.97;;;14.87;92.09
72086;BME280;64750;52.134;5.424;2023-05-08T08:27:13;102330.59;;;14.89;91.98
72086;BME280;64750;52.134;5.424;2023-05-08T08:29:40;102325.25;;;14.91;91.96
72086;BME280;64750;52.134;5.424;2023-05-08T08:32:06;102325.25;;;14.91;92.14
72086;BME280;64750;52.134;5.424;2023-05-08T08:34:33;102322.25;;;14.97;92.44
72086;BME280;64750;52.134;5.424;2023-05-08T08:36:59;102324.72;;;15.00;91.89
72086;BME280;64750;52.134;5.424;2023-05-08T08:39:26;102319.34;;;15.02;92.12
72086;BME280;64750;52.134;5.424;2023-05-08T08:41:53;102320.81;;;15.07;91.93
72086;BME280;64750;52.134;5.424;2023-05-08T08:44:19;102311.84;;;15.10;92.01
72086;BME280;64750;52.134;5.424;2023-05-08T08:46:50;102304.56;;;15.14;91.60
72086;BME280;64750;52.134;5.424;2023-05-08T08:49:18;102306.13;;;15.18;91.93
72086;BME280;64750;52.134;5.424;2023-05-08T08:51:52;102307.44;;;15.25;92.02
72086;BME280;64750;52.134;5.424;2023-05-08T08:54:22;102301.81;;;15.31;91.82
72086;BME280;64750;52.134;5.424;2023-05-08T08:56:49;102307.69;;;15.36;91.71
72086;BME280;64750;52.134;5.424;2023-05-08T08:59:17;102310.25;;;15.38;91.11
72086;BME280;64750;52.134;5.424;2023-05-08T09:01:47;102318.09;;;15.39;90.92
72086;BME280;64750;52.134;5.424;2023-05-08T09:04:16;102311.81;;;15.42;90.57
72086;BME280;64750;52.134;5.424;2023-05-08T09:06:43;102315.31;;;15.42;90.28
72086;BME280;64750;52.134;5.424;2023-05-08T09:09:11;102313.34;;;15.46;90.83
72086;BME280;64750;52.134;5.424;2023-05-08T09:11:39;102317.69;;;15.47;90.62
72086;BME280;64750;52.134;5.424;2023-05-08T09:14:06;102313.00;;;15.52;91.19
72086;BME280;64750;52.134;5.424;2023-05-08T09:16:33;102314.50;;;15.56;90.81
72086;BME280;64750;52.134;5.424;2023-05-08T09:19:01;102311.78;;;15.58;90.46
72086;BME280;64750;52.134;5.424;2023-05-08T09:21:29;102306.28;;;15.61;90.51
72086;BME280;64750;52.134;5.424;2023-05-08T09:23:59;102314.81;;;15.66;90.66
72086;BME280;64750;52.134;5.424;2023-05-08T09:26:31;102312.94;;;15.68;90.79
72086;BME280;64750;52.134;5.424;2023-05-08T09:29:08;102312.59;;;15.74;90.50
72086;BME280;64750;52.134;5.424;2023-05-08T09:31:35;102310.88;;;15.73;89.97
72086;BME280;64750;52.134;5.424;2023-05-08T09:34:02;102308.22;;;15.73;89.76
72086;BME280;64750;52.134;5.424;2023-05-08T09:36:29;102313.34;;;15.77;89.57
72086;BME280;64750;52.134;5.424;2023-05-08T09:38:57;102306.06;;;15.80;88.86
72086;BME280;64750;52.134;5.424;2023-05-08T09:41:23;102311.34;;;15.80;88.92
72086;BME280;64750;52.134;5.424;2023-05-08T09:44:03;102305.72;;;15.86;89.13
72086;BME280;64750;52.134;5.424;2023-05-08T09:46:30;102308.03;;;15.93;88.91
72086;BME280;64750;52.134;5.424;2023-05-08T09:49:01;102305.75;;;16.01;88.95
72086;BME280;64750;52.134;5.424;2023-05-08T09:51:29;102311.28;;;16.12;89.22
72086;BME280;64750;52.134;5.424;2023-05-08T09:53:57;102311.84;;;16.17;88.51
72086;BME280;64750;52.134;5.424;2023-05-08T09:56:31;102305.59;;;16.18;88.25
72086;BME280;64750;52.134;5.424;2023-05-08T09:58:58;102309.88;;;16.21;88.17
72086;BME280;64750;52.134;5.424;2023-05-08T10:01:30;102309.66;;;16.24;88.26
72086;BME280;64750;52.134;5.424;2023-05-08T10:03:57;102304.19;;;16.27;88.62
72086;BME280;64750;52.134;5.424;2023-05-08T10:06:25;102309.50;;;16.27;88.65
72086;BME280;64750;52.134;5.424;2023-05-08T10:09:09;102309.50;;;16.27;88.56
72086;BME280;64750;52.134;5.424;2023-05-08T10:11:38;102305.59;;;16.33;88.54
72086;BME280;64750;52.134;5.424;2023-05-08T10:14:04;102315.19;;;16.35;88.14
72086;BME280;64750;52.134;5.424;2023-05-08T10:16:36;102306.09;;;16.39;87.72
72086;BME280;64750;52.134;5.424;2023-05-08T10:19:09;102307.78;;;16.40;88.12
72086;BME280;64750;52.134;5.424;2023-05-08T10:21:40;102320.13;;;16.42;88.32
72086;BME280;64750;52.134;5.424;2023-05-08T10:24:12;102317.66;;;16.38;87.73
72086;BME280;64750;52.134;5.424;2023-05-08T10:26:42;102309.88;;;16.35;87.67
72086;BME280;64750;52.134;5.424;2023-05-08T10:29:33;102316.72;;;16.39;88.99
72086;BME280;64750;52.134;5.424;2023-05-08T10:32:08;102311.41;;;16.39;88.95
72086;BME280;64750;52.134;5.424;2023-05-08T10:34:39;102312.16;;;16.42;88.17
72086;BME280;64750;52.134;5.424;2023-05-08T10:37:09;102308.44;;;16.44;88.35
72086;BME280;64750;52.134;5.424;2023-05-08T10:39:37;102307.41;;;16.47;88.72
72086;BME280;64750;52.134;5.424;2023-05-08T10:42:04;102310.63;;;16.52;89.34
72086;BME280;64750;52.134;5.424;2023-05-08T10:44:30;102310.34;;;16.56;89.32
72086;BME280;64750;52.134;5.424;2023-05-08T10:49:59;102310.25;;;16.72;88.86
72086;BME280;64750;52.134;5.424;2023-05-08T10:52:45;102308.63;;;16.84;87.75
72086;BME280;64750;52.134;5.424;2023-05-08T10:55:24;102303.59;;;16.94;87.22
72086;BME280;64750;52.134;5.424;2023-05-08T10:58:13;102309.38;;;17.01;86.55
72086;BME280;64750;52.134;5.424;2023-05-08T11:03:21;102306.22;;;17.09;85.34
72086;BME280;64750;52.134;5.424;2023-05-08T11:05:58;102310.59;;;17.10;84.63
72086;BME280;64750;52.134;5.424;2023-05-08T11:08:26;102305.59;;;17.05;83.64
72086;BME280;64750;52.134;5.424;2023-05-08T11:13:27;102303.88;;;17.04;83.51
72086;BME280;64750;52.134;5.424;2023-05-08T11:15:54;102302.28;;;17.01;83.71
72086;BME280;64750;52.134;5.424;2023-05-08T11:18:21;102298.00;;;16.99;84.00
72086;BME280;64750;52.134;5.424;2023-05-08T11:20:59;102301.72;;;16.96;83.73
72086;BME280;64750;52.134;5.424;2023-05-08T11:23:27;102293.91;;;16.93;83.57
72086;BME280;64750;52.134;5.424;2023-05-08T11:26:12;102293.84;;;16.95;83.91
72086;BME280;64750;52.134;5.424;2023-05-08T11:29:00;102292.97;;;16.94;84.03
72086;BME280;64750;52.134;5.424;2023-05-08T11:31:49;102284.28;;;16.92;83.69
72086;BME280;64750;52.134;5.424;2023-05-08T11:37:08;102284.63;;;17.00;84.53
72086;BME280;64750;52.134;5.424;2023-05-08T11:39:35;102277.88;;;17.09;84.66
72086;BME280;64750;52.134;5.424;2023-05-08T11:45:05;102279.25;;;17.15;84.15
72086;BME280;64750;52.134;5.424;2023-05-08T11:47:41;102277.38;;;17.17;82.11
72086;BME280;64750;52.134;5.424;2023-05-08T11:50:09;102270.22;;;17.17;82.27
72086;BME280;64750;52.134;5.424;2023-05-08T11:52:38;102271.00;;;17.19;82.78
72086;BME280;64750;52.134;5.424;2023-05-08T11:55:09;102270.78;;;17.22;82.86
72086;BME280;64750;52.134;5.424;2023-05-08T11:57:35;102274.97;;;17.27;83.49
72086;BME280;64750;52.134;5.424;2023-05-08T12:00:11;102273.81;;;17.31;82.53
72086;BME280;64750;52.134;5.424;2023-05-08T12:02:42;102277.19;;;17.33;82.81
72086;BME280;64750;52.134;5.424;2023-05-08T12:05:11;102269.88;;;17.36;82.11
72086;BME280;64750;52.134;5.424;2023-05-08T12:07:44;102272.94;;;17.30;82.50
72086;BME280;64750;52.134;5.424;2023-05-08T12:10:15;102261.69;;;17.27;82.58
72086;BME280;64750;52.134;5.424;2023-05-08T12:12:43;102267.84;;;17.27;82.80
72086;BME280;64750;52.134;5.424;2023-05-08T12:15:13;102277.13;;;17.34;82.37
72086;BME280;64750;52.134;5.424;2023-05-08T12:17:41;102266.81;;;17.43;82.60
72086;BME280;64750;52.134;5.424;2023-05-08T12:20:12;102263.22;;;17.44;81.91
72086;BME280;64750;52.134;5.424;2023-05-08T12:22:40;102261.59;;;17.41;81.67
72086;BME280;64750;52.134;5.424;2023-05-08T12:25:09;102262.44;;;17.42;81.94
72086;BME280;64750;52.134;5.424;2023-05-08T12:27:36;102254.19;;;17.46;81.75
72086;BME280;64750;52.134;5.424;2023-05-08T12:30:07;102258.97;;;17.54;80.27
72086;BME280;64750;52.134;5.424;2023-05-08T12:32:36;102258.34;;;17.63;80.54
72086;BME280;64750;52.134;5.424;2023-05-08T12:35:07;102257.19;;;17.67;79.99
72086;BME280;64750;52.134;5.424;2023-05-08T12:37:34;102259.00;;;17.67;80.55
72086;BME280;64750;52.134;5.424;2023-05-08T12:40:03;102252.09;;;17.64;80.79
72086;BME280;64750;52.134;5.424;2023-05-08T12:42:47;102248.47;;;17.65;79.97
72086;BME280;64750;52.134;5.424;2023-05-08T12:45:20;102247.31;;;17.69;80.72
72086;BME280;64750;52.134;5.424;2023-05-08T12:47:51;102243.28;;;17.77;80.81
72086;BME280;64750;52.134;5.424;2023-05-08T12:50:20;102240.09;;;17.84;80.15
72086;BME280;64750;52.134;5.424;2023-05-08T12:52:47;102240.72;;;17.88;78.59
72086;BME280;64750;52.134;5.424;2023-05-08T12:55:27;102220.41;;;17.87;79.28
72086;BME280;64750;52.134;5.424;2023-05-08T12:57:58;102225.00;;;17.98;80.01
72086;BME280;64750;52.134;5.424;2023-05-08T13:00:36;102222.34;;;18.11;78.81
72086;BME280;64750;52.134;5.424;2023-05-08T13:03:03;102220.09;;;18.17;78.45
72086;BME280;64750;52.134;5.424;2023-05-08T13:05:30;102213.28;;;18.13;78.27
72086;BME280;64750;52.134;5.424;2023-05-08T13:08:01;102211.69;;;18.11;78.82
72086;BME280;64750;52.134;5.424;2023-05-08T13:10:50;102211.91;;;18.08;77.98
72086;BME280;64750;52.134;5.424;2023-05-08T13:13:24;102208.50;;;18.06;78.50
72086;BME280;64750;52.134;5.424;2023-05-08T13:15:53;102207.75;;;18.03;78.69
72086;BME280;64750;52.134;5.424;2023-05-08T13:18:22;102206.06;;;18.02;78.12
72086;BME280;64750;52.134;5.424;2023-05-08T13:20:49;102208.50;;;18.06;76.67
72086;BME280;64750;52.134;5.424;2023-05-08T13:23:15;102210.97;;;18.09;77.48
72086;BME280;64750;52.134;5.424;2023-05-08T13:25:42;102209.38;;;18.06;77.50
72086;BME280;64750;52.134;5.424;2023-05-08T13:28:08;102212.03;;;18.06;78.16
72086;BME280;64750;52.134;5.424;2023-05-08T13:30:36;102209.25;;;18.08;78.40